<?xml version='1.0' encoding='UTF-8'?><gpx version="1.1" creator="JPX - https://github.com/jenetics/jpx" xmlns="http://www.topografix.com/GPX/1/1"><trk><trkseg><trkpt lat="41.2662994" lon="15.0072553"><ele>792.0</ele><time>2026-04-11T13:47:10.227Z</time></trkpt><trkpt lat="41.2662907" lon="15.0073395"><ele>792.0</ele><time>2026-04-11T13:47:14.226Z</time></trkpt><trkpt lat="41.2662599" lon="15.0074301"><ele>792.0</ele><time>2026-04-11T13:47:18.227Z</time></trkpt><trkpt lat="41.2662364" lon="15.0075114"><ele>792.0</ele><time>2026-04-11T13:47:22.226Z</time></trkpt><trkpt lat="41.2661985" lon="15.0075926"><ele>792.0</ele><time>2026-04-11T13:47:26.226Z</time></trkpt><trkpt lat="41.266142" lon="15.0076566"><ele>792.0</ele><time>2026-04-11T13:47:35.227Z</time></trkpt><trkpt lat="41.2660681" lon="15.0076618"><ele>792.0</ele><time>2026-04-11T13:47:39.226Z</time></trkpt><trkpt lat="41.2659924" lon="15.0076309"><ele>792.0</ele><time>2026-04-11T13:47:43.226Z</time></trkpt><trkpt lat="41.2659317" lon="15.0075878"><ele>792.0</ele><time>2026-04-11T13:47:46.228Z</time></trkpt><trkpt lat="41.2658811" lon="15.0075352"><ele>792.0</ele><time>2026-04-11T13:47:49.226Z</time></trkpt><trkpt lat="41.2658491" lon="15.0074622"><ele>792.0</ele><time>2026-04-11T13:47:52.226Z</time></trkpt><trkpt lat="41.2658348" lon="15.0073763"><ele>792.0</ele><time>2026-04-11T13:47:55.227Z</time></trkpt><trkpt lat="41.2658335" lon="15.0072777"><ele>792.0</ele><time>2026-04-11T13:47:59.227Z</time></trkpt><trkpt lat="41.2657832" lon="15.0071947"><ele>792.0</ele><time>2026-04-11T13:48:04.227Z</time></trkpt><trkpt lat="41.2657184" lon="15.0071634"><ele>792.0</ele><time>2026-04-11T13:48:07.226Z</time></trkpt><trkpt lat="41.2656481" lon="15.0071144"><ele>792.0</ele><time>2026-04-11T13:48:11.226Z</time></trkpt><trkpt lat="41.2655727" lon="15.0070559"><ele>792.0</ele><time>2026-04-11T13:48:15.226Z</time></trkpt><trkpt lat="41.2655091" lon="15.00702"><ele>792.0</ele><time>2026-04-11T13:48:17.226Z</time></trkpt><trkpt lat="41.2654532" lon="15.0069727"><ele>792.0</ele><time>2026-04-11T13:48:19.226Z</time></trkpt><trkpt lat="41.2653999" lon="15.0069242"><ele>792.0</ele><time>2026-04-11T13:48:21.226Z</time></trkpt><trkpt lat="41.2653277" lon="15.0068743"><ele>792.0</ele><time>2026-04-11T13:48:23.227Z</time></trkpt><trkpt lat="41.2652535" lon="15.0068353"><ele>795.0</ele><time>2026-04-11T13:48:25.226Z</time></trkpt><trkpt lat="41.2651731" lon="15.0067985"><ele>798.0</ele><time>2026-04-11T13:48:27.226Z</time></trkpt><trkpt lat="41.2650879" lon="15.006764"><ele>801.0</ele><time>2026-04-11T13:48:29.226Z</time></trkpt><trkpt lat="41.2650207" lon="15.0067395"><ele>804.0</ele><time>2026-04-11T13:48:31.226Z</time></trkpt><trkpt lat="41.2649375" lon="15.0067252"><ele>807.0</ele><time>2026-04-11T13:48:34.226Z</time></trkpt><trkpt lat="41.2648676" lon="15.0067198"><ele>810.0</ele><time>2026-04-11T13:48:39.226Z</time></trkpt><trkpt lat="41.2648002" lon="15.0067376"><ele>809.9999999999999</ele><time>2026-04-11T13:48:44.226Z</time></trkpt><trkpt lat="41.264733" lon="15.0067868"><ele>810.0</ele><time>2026-04-11T13:48:50.226Z</time></trkpt><trkpt lat="41.2647914" lon="15.0068187"><ele>810.0</ele><time>2026-04-11T13:49:19.227Z</time></trkpt><trkpt lat="41.2648417" lon="15.0069042"><ele>810.0</ele><time>2026-04-11T13:49:24.228Z</time></trkpt><trkpt lat="41.264887" lon="15.0069662"><ele>810.0</ele><time>2026-04-11T13:49:27.226Z</time></trkpt><trkpt lat="41.2649248" lon="15.0070335"><ele>809.9999999999999</ele><time>2026-04-11T13:49:30.226Z</time></trkpt><trkpt lat="41.2649708" lon="15.0071125"><ele>810.0</ele><time>2026-04-11T13:49:34.226Z</time></trkpt><trkpt lat="41.2650201" lon="15.0071798"><ele>810.0</ele><time>2026-04-11T13:49:39.226Z</time></trkpt><trkpt lat="41.265057" lon="15.0072502"><ele>810.0</ele><time>2026-04-11T13:49:43.227Z</time></trkpt><trkpt lat="41.2650961" lon="15.0073262"><ele>810.0</ele><time>2026-04-11T13:49:47.226Z</time></trkpt><trkpt lat="41.2651404" lon="15.0074146"><ele>810.0</ele><time>2026-04-11T13:49:52.226Z</time></trkpt><trkpt lat="41.2651911" lon="15.0074867"><ele>810.0</ele><time>2026-04-11T13:49:56.227Z</time></trkpt><trkpt lat="41.2652204" lon="15.0075721"><ele>810.0</ele><time>2026-04-11T13:50:02.226Z</time></trkpt><trkpt lat="41.2652762" lon="15.0076726"><ele>810.9999999999999</ele><time>2026-04-11T13:50:16.226Z</time></trkpt><trkpt lat="41.2653211" lon="15.0077519"><ele>812.0</ele><time>2026-04-11T13:53:10.225Z</time></trkpt><trkpt lat="41.2653532" lon="15.0078251"><ele>813.0</ele><time>2026-04-11T13:53:16.226Z</time></trkpt><trkpt lat="41.2653704" lon="15.007916"><ele>814.0</ele><time>2026-04-11T13:53:39.226Z</time></trkpt><trkpt lat="41.2653993" lon="15.0079931"><ele>815.0</ele><time>2026-04-11T13:53:47.226Z</time></trkpt><trkpt lat="41.2654641" lon="15.0080683"><ele>815.9999999999999</ele><time>2026-04-11T13:53:52.225Z</time></trkpt><trkpt lat="41.2655062" lon="15.0081322"><ele>817.0</ele><time>2026-04-11T13:53:58.225Z</time></trkpt><trkpt lat="41.2655563" lon="15.0081865"><ele>814.9999999999999</ele><time>2026-04-11T13:54:05.225Z</time></trkpt><trkpt lat="41.26562" lon="15.0082357"><ele>813.0</ele><time>2026-04-11T13:54:11.253Z</time></trkpt><trkpt lat="41.2656798" lon="15.0082764"><ele>811.0</ele><time>2026-04-11T13:54:16.225Z</time></trkpt><trkpt lat="41.2657326" lon="15.0083404"><ele>809.0</ele><time>2026-04-11T13:54:21.209Z</time></trkpt><trkpt lat="41.2657778" lon="15.0084002"><ele>807.0</ele><time>2026-04-11T13:54:25.23Z</time></trkpt><trkpt lat="41.2658284" lon="15.0084513"><ele>804.9999999999999</ele><time>2026-04-11T13:54:29.189Z</time></trkpt><trkpt lat="41.2658714" lon="15.0085308"><ele>803.0</ele><time>2026-04-11T13:54:34.225Z</time></trkpt><trkpt lat="41.265939" lon="15.0085701"><ele>802.9999999999999</ele><time>2026-04-11T13:54:40.225Z</time></trkpt><trkpt lat="41.2660101" lon="15.0085728"><ele>803.0</ele><time>2026-04-11T13:55:48.151Z</time></trkpt><trkpt lat="41.2660673" lon="15.0086491"><ele>803.0</ele><time>2026-04-11T13:55:51.046Z</time></trkpt><trkpt lat="41.2661353" lon="15.0086923"><ele>803.0</ele><time>2026-04-11T13:55:55.224Z</time></trkpt><trkpt lat="41.266191" lon="15.0087513"><ele>803.0</ele><time>2026-04-11T13:56:00.226Z</time></trkpt><trkpt lat="41.2662203" lon="15.0088336"><ele>802.9999999999999</ele><time>2026-04-11T13:56:05.124Z</time></trkpt><trkpt lat="41.2662687" lon="15.0088956"><ele>803.0</ele><time>2026-04-11T13:56:10.224Z</time></trkpt><trkpt lat="41.2663497" lon="15.0088957"><ele>802.9999999999999</ele><time>2026-04-11T13:56:15.225Z</time></trkpt><trkpt lat="41.2664242" lon="15.0088736"><ele>803.0</ele><time>2026-04-11T13:56:19.112Z</time></trkpt><trkpt lat="41.2664979" lon="15.0088439"><ele>803.0</ele><time>2026-04-11T13:56:23.189Z</time></trkpt><trkpt lat="41.2665661" lon="15.0088398"><ele>803.0</ele><time>2026-04-11T13:56:28.225Z</time></trkpt><trkpt lat="41.2666342" lon="15.0088234"><ele>803.0</ele><time>2026-04-11T13:56:35.225Z</time></trkpt><trkpt lat="41.2666995" lon="15.0088543"><ele>802.9999999999999</ele><time>2026-04-11T13:56:40.221Z</time></trkpt><trkpt lat="41.2667746" lon="15.008895"><ele>803.0</ele><time>2026-04-11T13:57:07.224Z</time></trkpt><trkpt lat="41.2668112" lon="15.0089674"><ele>800.8571428571428</ele><time>2026-04-11T13:57:14.126Z</time></trkpt><trkpt lat="41.2668299" lon="15.0090678"><ele>798.7142857142857</ele><time>2026-04-11T13:57:20.126Z</time></trkpt><trkpt lat="41.2667874" lon="15.0091547"><ele>796.5714285714286</ele><time>2026-04-11T13:57:23.224Z</time></trkpt><trkpt lat="41.2667471" lon="15.009223"><ele>794.4285714285713</ele><time>2026-04-11T13:57:27.224Z</time></trkpt><trkpt lat="41.2666818" lon="15.0092589"><ele>792.2857142857143</ele><time>2026-04-11T13:57:31.224Z</time></trkpt><trkpt lat="41.2666055" lon="15.0092608"><ele>790.1428571428571</ele><time>2026-04-11T13:57:36.224Z</time></trkpt><trkpt lat="41.2666621" lon="15.00931"><ele>788.0</ele><time>2026-04-11T13:57:51.224Z</time></trkpt><trkpt lat="41.2666928" lon="15.0093917"><ele>788.0</ele><time>2026-04-11T13:57:58.224Z</time></trkpt><trkpt lat="41.2667223" lon="15.0094679"><ele>788.0</ele><time>2026-04-11T13:58:06.225Z</time></trkpt><trkpt lat="41.266708" lon="15.009384"><ele>788.0</ele><time>2026-04-11T13:58:22.224Z</time></trkpt><trkpt lat="41.2667225" lon="15.0093014"><ele>788.0</ele><time>2026-04-11T13:58:27.225Z</time></trkpt><trkpt lat="41.2667709" lon="15.0092458"><ele>788.0</ele><time>2026-04-11T13:58:33.225Z</time></trkpt><trkpt lat="41.2668184" lon="15.0091901"><ele>788.0</ele><time>2026-04-11T13:58:40.139Z</time></trkpt><trkpt lat="41.2668398" lon="15.0091103"><ele>788.0</ele><time>2026-04-11T13:58:46.224Z</time></trkpt><trkpt lat="41.2669018" lon="15.0090535"><ele>788.0</ele><time>2026-04-11T13:58:52.219Z</time></trkpt><trkpt lat="41.2669753" lon="15.0090489"><ele>788.0</ele><time>2026-04-11T13:58:57.225Z</time></trkpt><trkpt lat="41.2670409" lon="15.009064"><ele>788.0</ele><time>2026-04-11T13:59:01.216Z</time></trkpt><trkpt lat="41.2671005" lon="15.0091087"><ele>788.0</ele><time>2026-04-11T13:59:05.224Z</time></trkpt><trkpt lat="41.2671628" lon="15.0091361"><ele>788.0</ele><time>2026-04-11T13:59:09.225Z</time></trkpt><trkpt lat="41.2672018" lon="15.0092043"><ele>788.0</ele><time>2026-04-11T13:59:13.224Z</time></trkpt><trkpt lat="41.2672422" lon="15.0092783"><ele>788.0</ele><time>2026-04-11T13:59:18.219Z</time></trkpt><trkpt lat="41.2673041" lon="15.0092951"><ele>785.4285714285714</ele><time>2026-04-11T13:59:46.224Z</time></trkpt><trkpt lat="41.2673756" lon="15.0092615"><ele>782.8571428571429</ele><time>2026-04-11T13:59:52.24Z</time></trkpt><trkpt lat="41.2674377" lon="15.0091976"><ele>780.2857142857142</ele><time>2026-04-11T14:00:06.224Z</time></trkpt><trkpt lat="41.2674889" lon="15.0091257"><ele>777.7142857142858</ele><time>2026-04-11T14:00:10.224Z</time></trkpt><trkpt lat="41.2675512" lon="15.0090852"><ele>775.1428571428571</ele><time>2026-04-11T14:00:15.225Z</time></trkpt><trkpt lat="41.2676164" lon="15.0090567"><ele>772.5714285714286</ele><time>2026-04-11T14:00:20.084Z</time></trkpt><trkpt lat="41.2676795" lon="15.009091"><ele>770.0</ele><time>2026-04-11T14:00:39.22Z</time></trkpt><trkpt lat="41.26772" lon="15.0091668"><ele>770.0</ele><time>2026-04-11T14:00:44.225Z</time></trkpt><trkpt lat="41.2677333" lon="15.0092659"><ele>770.0</ele><time>2026-04-11T14:00:49.225Z</time></trkpt><trkpt lat="41.2677244" lon="15.0093555"><ele>770.0</ele><time>2026-04-11T14:01:00.225Z</time></trkpt><trkpt lat="41.2677147" lon="15.0094424"><ele>770.0</ele><time>2026-04-11T14:01:04.202Z</time></trkpt><trkpt lat="41.2677208" lon="15.0095291"><ele>770.0</ele><time>2026-04-11T14:01:09.223Z</time></trkpt><trkpt lat="41.2676904" lon="15.0096111"><ele>770.0</ele><time>2026-04-11T14:01:15.224Z</time></trkpt><trkpt lat="41.2676486" lon="15.0096901"><ele>770.0</ele><time>2026-04-11T14:01:21.233Z</time></trkpt><trkpt lat="41.2676173" lon="15.0097675"><ele>770.0</ele><time>2026-04-11T14:01:28.196Z</time></trkpt><trkpt lat="41.2676459" lon="15.0098609"><ele>770.0</ele><time>2026-04-11T14:01:34.205Z</time></trkpt><trkpt lat="41.2677083" lon="15.0099261"><ele>770.0</ele><time>2026-04-11T14:01:44.223Z</time></trkpt><trkpt lat="41.2677786" lon="15.0098896"><ele>770.0</ele><time>2026-04-11T14:01:52.23Z</time></trkpt><trkpt lat="41.2678452" lon="15.0098416"><ele>770.0</ele><time>2026-04-11T14:01:56.22Z</time></trkpt><trkpt lat="41.2678627" lon="15.0097452"><ele>770.0</ele><time>2026-04-11T14:02:01.223Z</time></trkpt><trkpt lat="41.267899" lon="15.0096724"><ele>770.0</ele><time>2026-04-11T14:02:09.223Z</time></trkpt><trkpt lat="41.2679584" lon="15.0096155"><ele>770.0</ele><time>2026-04-11T14:02:15.219Z</time></trkpt><trkpt lat="41.2680207" lon="15.0095649"><ele>770.0</ele><time>2026-04-11T14:02:23.224Z</time></trkpt><trkpt lat="41.2680822" lon="15.0095161"><ele>770.0</ele><time>2026-04-11T14:02:30.2Z</time></trkpt><trkpt lat="41.2681465" lon="15.0094648"><ele>770.0</ele><time>2026-04-11T14:03:09.223Z</time></trkpt><trkpt lat="41.2681933" lon="15.0094051"><ele>770.0</ele><time>2026-04-11T14:03:14.223Z</time></trkpt><trkpt lat="41.2682628" lon="15.0093898"><ele>770.0</ele><time>2026-04-11T14:05:33.223Z</time></trkpt><trkpt lat="41.2683254" lon="15.0093586"><ele>770.0</ele><time>2026-04-11T14:05:45.223Z</time></trkpt><trkpt lat="41.268356" lon="15.0092508"><ele>766.7142857142857</ele><time>2026-04-11T14:06:25.224Z</time></trkpt><trkpt lat="41.268355" lon="15.0091579"><ele>763.4285714285714</ele><time>2026-04-11T14:06:36.222Z</time></trkpt><trkpt lat="41.2683843" lon="15.0092425"><ele>760.1428571428571</ele><time>2026-04-11T14:07:15.222Z</time></trkpt><trkpt lat="41.2684743" lon="15.0091865"><ele>756.8571428571429</ele><time>2026-04-11T14:07:48.222Z</time></trkpt><trkpt lat="41.2685309" lon="15.0091403"><ele>753.5714285714286</ele><time>2026-04-11T14:07:55.222Z</time></trkpt><trkpt lat="41.2685414" lon="15.009049"><ele>750.2857142857142</ele><time>2026-04-11T14:08:21.222Z</time></trkpt><trkpt lat="41.268584" lon="15.00898"><ele>747.0</ele><time>2026-04-11T14:08:50.222Z</time></trkpt><trkpt lat="41.2686503" lon="15.0089856"><ele>746.4285714285713</ele><time>2026-04-11T14:08:55.222Z</time></trkpt><trkpt lat="41.2687112" lon="15.0090469"><ele>745.8571428571429</ele><time>2026-04-11T14:09:01.222Z</time></trkpt><trkpt lat="41.2687523" lon="15.0091129"><ele>745.2857142857142</ele><time>2026-04-11T14:09:14.223Z</time></trkpt><trkpt lat="41.2688483" lon="15.0090519"><ele>744.7142857142857</ele><time>2026-04-11T14:09:49.151Z</time></trkpt><trkpt lat="41.2689122" lon="15.0090541"><ele>744.1428571428571</ele><time>2026-04-11T14:10:19.223Z</time></trkpt><trkpt lat="41.2689713" lon="15.0090093"><ele>743.5714285714286</ele><time>2026-04-11T14:10:27.222Z</time></trkpt><trkpt lat="41.2690271" lon="15.0089685"><ele>743.0</ele><time>2026-04-11T14:10:37.223Z</time></trkpt><trkpt lat="41.2690942" lon="15.0089727"><ele>740.4285714285714</ele><time>2026-04-11T14:11:21.223Z</time></trkpt><trkpt lat="41.2691774" lon="15.0089282"><ele>737.8571428571428</ele><time>2026-04-11T14:11:47.222Z</time></trkpt><trkpt lat="41.2692436" lon="15.0089309"><ele>735.2857142857142</ele><time>2026-04-11T14:11:54.221Z</time></trkpt><trkpt lat="41.2693109" lon="15.0089053"><ele>732.7142857142858</ele><time>2026-04-11T14:12:29.221Z</time></trkpt><trkpt lat="41.2693805" lon="15.008895"><ele>730.1428571428571</ele><time>2026-04-11T14:12:34.221Z</time></trkpt><trkpt lat="41.2694404" lon="15.0089435"><ele>727.5714285714286</ele><time>2026-04-11T14:12:42.221Z</time></trkpt><trkpt lat="41.2695042" lon="15.008974"><ele>725.0</ele><time>2026-04-11T14:12:48.221Z</time></trkpt><trkpt lat="41.2695809" lon="15.0089843"><ele>725.0</ele><time>2026-04-11T14:13:22.221Z</time></trkpt><trkpt lat="41.2696406" lon="15.0090117"><ele>725.0</ele><time>2026-04-11T14:13:27.221Z</time></trkpt><trkpt lat="41.2696959" lon="15.0089417"><ele>725.0</ele><time>2026-04-11T14:13:44.221Z</time></trkpt><trkpt lat="41.2697626" lon="15.0089131"><ele>725.0</ele><time>2026-04-11T14:15:15.221Z</time></trkpt><trkpt lat="41.269821" lon="15.0089701"><ele>725.0</ele><time>2026-04-11T14:15:20.179Z</time></trkpt><trkpt lat="41.2698752" lon="15.0090142"><ele>725.0</ele><time>2026-04-11T14:15:26.221Z</time></trkpt><trkpt lat="41.2699386" lon="15.009045"><ele>725.0</ele><time>2026-04-11T14:16:13.221Z</time></trkpt><trkpt lat="41.2699991" lon="15.009077"><ele>721.6666666666666</ele><time>2026-04-11T14:16:19.221Z</time></trkpt><trkpt lat="41.2700579" lon="15.0090467"><ele>718.3333333333333</ele><time>2026-04-11T14:16:26.222Z</time></trkpt><trkpt lat="41.2701218" lon="15.0090267"><ele>715.0</ele><time>2026-04-11T14:16:37.221Z</time></trkpt><trkpt lat="41.2701721" lon="15.0089109"><ele>711.6666666666666</ele><time>2026-04-11T14:18:06.22Z</time></trkpt><trkpt lat="41.2702462" lon="15.0089763"><ele>708.3333333333334</ele><time>2026-04-11T14:18:33.22Z</time></trkpt><trkpt lat="41.2703068" lon="15.0090219"><ele>705.0</ele><time>2026-04-11T14:18:49.22Z</time></trkpt><trkpt lat="41.2703609" lon="15.0089768"><ele>704.9999999999999</ele><time>2026-04-11T14:19:02.22Z</time></trkpt><trkpt lat="41.2704276" lon="15.00896"><ele>705.0</ele><time>2026-04-11T14:19:24.22Z</time></trkpt><trkpt lat="41.2704397" lon="15.0090527"><ele>705.0</ele><time>2026-04-11T14:20:00.221Z</time></trkpt><trkpt lat="41.2704947" lon="15.0090999"><ele>705.0</ele><time>2026-04-11T14:20:05.22Z</time></trkpt><trkpt lat="41.2705474" lon="15.0091615"><ele>705.0</ele><time>2026-04-11T14:20:23.22Z</time></trkpt><trkpt lat="41.2705413" lon="15.009253"><ele>704.9999999999999</ele><time>2026-04-11T14:20:34.22Z</time></trkpt><trkpt lat="41.2705798" lon="15.0093254"><ele>705.0</ele><time>2026-04-11T14:20:59.221Z</time></trkpt><trkpt lat="41.2706375" lon="15.0092827"><ele>702.7142857142857</ele><time>2026-04-11T14:21:09.22Z</time></trkpt><trkpt lat="41.2706661" lon="15.0092045"><ele>700.4285714285714</ele><time>2026-04-11T14:21:18.22Z</time></trkpt><trkpt lat="41.2706547" lon="15.0091112"><ele>698.1428571428571</ele><time>2026-04-11T14:21:42.22Z</time></trkpt><trkpt lat="41.2706628" lon="15.0090258"><ele>695.8571428571429</ele><time>2026-04-11T14:21:51.221Z</time></trkpt><trkpt lat="41.2706747" lon="15.0089409"><ele>693.5714285714286</ele><time>2026-04-11T14:22:17.208Z</time></trkpt><trkpt lat="41.2707265" lon="15.0088637"><ele>691.2857142857142</ele><time>2026-04-11T14:22:51.162Z</time></trkpt><trkpt lat="41.2707946" lon="15.0088423"><ele>689.0</ele><time>2026-04-11T14:22:59.199Z</time></trkpt><trkpt lat="41.270856" lon="15.0088616"><ele>689.0</ele><time>2026-04-11T14:23:04.219Z</time></trkpt><trkpt lat="41.2708953" lon="15.0087953"><ele>689.0</ele><time>2026-04-11T14:23:40.219Z</time></trkpt><trkpt lat="41.2709595" lon="15.0087664"><ele>689.0</ele><time>2026-04-11T14:23:55.219Z</time></trkpt><trkpt lat="41.2710241" lon="15.0087494"><ele>689.0</ele><time>2026-04-11T14:24:14.219Z</time></trkpt><trkpt lat="41.2710803" lon="15.0087009"><ele>689.0</ele><time>2026-04-11T14:24:26.219Z</time></trkpt><trkpt lat="41.2710357" lon="15.0086318"><ele>689.0</ele><time>2026-04-11T14:24:31.219Z</time></trkpt><trkpt lat="41.2709737" lon="15.0086102"><ele>689.0</ele><time>2026-04-11T14:24:36.22Z</time></trkpt><trkpt lat="41.270915" lon="15.0085738"><ele>689.0</ele><time>2026-04-11T14:24:44.219Z</time></trkpt><trkpt lat="41.2708482" lon="15.0085357"><ele>689.0</ele><time>2026-04-11T14:24:51.219Z</time></trkpt><trkpt lat="41.2708221" lon="15.0084577"><ele>689.0</ele><time>2026-04-11T14:24:58.22Z</time></trkpt><trkpt lat="41.2708246" lon="15.0083724"><ele>689.0</ele><time>2026-04-11T14:25:18.22Z</time></trkpt><trkpt lat="41.2707776" lon="15.0083143"><ele>689.0</ele><time>2026-04-11T14:25:28.219Z</time></trkpt><trkpt lat="41.2708526" lon="15.0082601"><ele>689.0</ele><time>2026-04-11T14:28:22.22Z</time></trkpt><trkpt lat="41.2708076" lon="15.0081877"><ele>689.0</ele><time>2026-04-11T14:28:31.219Z</time></trkpt><trkpt lat="41.2707395" lon="15.0080993"><ele>690.5714285714286</ele><time>2026-04-11T14:28:50.218Z</time></trkpt><trkpt lat="41.270678" lon="15.0080002"><ele>692.1428571428571</ele><time>2026-04-11T14:29:38.21Z</time></trkpt><trkpt lat="41.2706543" lon="15.0079201"><ele>693.7142857142858</ele><time>2026-04-11T14:29:44.218Z</time></trkpt><trkpt lat="41.2707034" lon="15.0078613"><ele>695.2857142857142</ele><time>2026-04-11T14:31:15.218Z</time></trkpt><trkpt lat="41.2707658" lon="15.0078459"><ele>696.8571428571429</ele><time>2026-04-11T14:31:22.185Z</time></trkpt><trkpt lat="41.2707132" lon="15.0077847"><ele>698.4285714285714</ele><time>2026-04-11T14:31:39.218Z</time></trkpt><trkpt lat="41.2706923" lon="15.0076986"><ele>700.0</ele><time>2026-04-11T14:31:53.218Z</time></trkpt><trkpt lat="41.2706344" lon="15.0077428"><ele>701.0</ele><time>2026-04-11T14:32:59.218Z</time></trkpt><trkpt lat="41.2705735" lon="15.0077102"><ele>702.0</ele><time>2026-04-11T14:33:38.218Z</time></trkpt><trkpt lat="41.2705353" lon="15.0076382"><ele>703.0</ele><time>2026-04-11T14:33:55.217Z</time></trkpt><trkpt lat="41.2705528" lon="15.0075452"><ele>704.0</ele><time>2026-04-11T14:34:08.217Z</time></trkpt><trkpt lat="41.2705309" lon="15.0074595"><ele>705.0</ele><time>2026-04-11T14:34:41.217Z</time></trkpt><trkpt lat="41.2705115" lon="15.0073734"><ele>706.0</ele><time>2026-04-11T14:34:57.218Z</time></trkpt><trkpt lat="41.2704972" lon="15.0072889"><ele>707.0</ele><time>2026-04-11T14:35:40.218Z</time></trkpt><trkpt lat="41.2704946" lon="15.0071985"><ele>707.0</ele><time>2026-04-11T14:36:09.217Z</time></trkpt><trkpt lat="41.2704312" lon="15.007116"><ele>707.0</ele><time>2026-04-11T14:36:12.217Z</time></trkpt><trkpt lat="41.2703598" lon="15.0070997"><ele>707.0</ele><time>2026-04-11T14:37:00.217Z</time></trkpt><trkpt lat="41.2703316" lon="15.0070168"><ele>707.0</ele><time>2026-04-11T14:38:04.217Z</time></trkpt><trkpt lat="41.2703021" lon="15.0070908"><ele>707.0</ele><time>2026-04-11T14:38:36.205Z</time></trkpt><trkpt lat="41.2702393" lon="15.0070786"><ele>707.0</ele><time>2026-04-11T14:39:20.216Z</time></trkpt><trkpt lat="41.2701752" lon="15.0071037"><ele>707.0</ele><time>2026-04-11T14:40:28.216Z</time></trkpt><trkpt lat="41.2701768" lon="15.0069952"><ele>707.0</ele><time>2026-04-11T14:41:42.171Z</time></trkpt><trkpt lat="41.2701188" lon="15.0069615"><ele>707.0</ele><time>2026-04-11T14:42:16.216Z</time></trkpt><trkpt lat="41.2700388" lon="15.0069486"><ele>707.0</ele><time>2026-04-11T14:42:33.216Z</time></trkpt><trkpt lat="41.2699731" lon="15.0069786"><ele>707.0</ele><time>2026-04-11T14:42:56.216Z</time></trkpt><trkpt lat="41.2699342" lon="15.0070524"><ele>707.0</ele><time>2026-04-11T14:43:05.216Z</time></trkpt><trkpt lat="41.2699015" lon="15.0071274"><ele>707.0</ele><time>2026-04-11T14:43:44.217Z</time></trkpt><trkpt lat="41.2698884" lon="15.0072132"><ele>707.0</ele><time>2026-04-11T14:43:53.217Z</time></trkpt><trkpt lat="41.2699042" lon="15.0072965"><ele>707.0</ele><time>2026-04-11T14:45:11.215Z</time></trkpt><trkpt lat="41.2699051" lon="15.007404"><ele>707.0</ele><time>2026-04-11T14:47:10.215Z</time></trkpt><trkpt lat="41.2699255" lon="15.0074842"><ele>707.0</ele><time>2026-04-11T14:48:43.215Z</time></trkpt></trkseg><trkseg><trkpt lat="41.2682968" lon="15.0087887"><ele>743.0</ele><time>2026-04-11T15:26:25.196Z</time></trkpt><trkpt lat="41.2682443" lon="15.0087404"><ele>743.0</ele><time>2026-04-11T15:26:32.204Z</time></trkpt><trkpt lat="41.2681791" lon="15.0087552"><ele>743.0</ele><time>2026-04-11T15:26:40.21Z</time></trkpt><trkpt lat="41.2681106" lon="15.0087774"><ele>743.0</ele><time>2026-04-11T15:27:09.21Z</time></trkpt><trkpt lat="41.2680685" lon="15.0087132"><ele>743.0</ele><time>2026-04-11T15:27:23.21Z</time></trkpt><trkpt lat="41.2680239" lon="15.0086529"><ele>743.0</ele><time>2026-04-11T15:27:31.21Z</time></trkpt><trkpt lat="41.268021" lon="15.0087403"><ele>743.0</ele><time>2026-04-11T15:27:50.21Z</time></trkpt><trkpt lat="41.2679603" lon="15.0087658"><ele>745.7142857142858</ele><time>2026-04-11T15:28:03.112Z</time></trkpt><trkpt lat="41.2679737" lon="15.008855"><ele>748.4285714285713</ele><time>2026-04-11T15:30:12.21Z</time></trkpt><trkpt lat="41.2679042" lon="15.0088764"><ele>751.1428571428571</ele><time>2026-04-11T15:30:18.209Z</time></trkpt><trkpt lat="41.267837" lon="15.0088836"><ele>753.8571428571429</ele><time>2026-04-11T15:30:25.21Z</time></trkpt><trkpt lat="41.2677796" lon="15.0088363"><ele>756.5714285714287</ele><time>2026-04-11T15:30:55.209Z</time></trkpt><trkpt lat="41.2677298" lon="15.0087827"><ele>759.2857142857142</ele><time>2026-04-11T15:31:03.209Z</time></trkpt><trkpt lat="41.2676618" lon="15.0087781"><ele>762.0</ele><time>2026-04-11T15:31:09.21Z</time></trkpt><trkpt lat="41.2676012" lon="15.0088169"><ele>762.0</ele><time>2026-04-11T15:31:19.225Z</time></trkpt><trkpt lat="41.2675361" lon="15.0088324"><ele>762.0</ele><time>2026-04-11T15:31:31.209Z</time></trkpt><trkpt lat="41.2674904" lon="15.008899"><ele>762.0</ele><time>2026-04-11T15:31:40.209Z</time></trkpt><trkpt lat="41.2674564" lon="15.0089758"><ele>762.0</ele><time>2026-04-11T15:31:49.209Z</time></trkpt><trkpt lat="41.2674194" lon="15.0090497"><ele>762.0</ele><time>2026-04-11T15:32:22.21Z</time></trkpt><trkpt lat="41.2673627" lon="15.0091024"><ele>762.0</ele><time>2026-04-11T15:32:29.209Z</time></trkpt><trkpt lat="41.2673169" lon="15.0091672"><ele>762.0</ele><time>2026-04-11T15:32:39.209Z</time></trkpt><trkpt lat="41.267252" lon="15.0091847"><ele>765.4285714285714</ele><time>2026-04-11T15:32:47.142Z</time></trkpt><trkpt lat="41.2671863" lon="15.0091956"><ele>768.8571428571429</ele><time>2026-04-11T15:32:56.209Z</time></trkpt><trkpt lat="41.2671251" lon="15.0092346"><ele>772.2857142857143</ele><time>2026-04-11T15:33:06.209Z</time></trkpt><trkpt lat="41.2670547" lon="15.0092333"><ele>775.7142857142858</ele><time>2026-04-11T15:33:15.21Z</time></trkpt><trkpt lat="41.2669902" lon="15.0091953"><ele>779.1428571428571</ele><time>2026-04-11T15:33:22.209Z</time></trkpt><trkpt lat="41.2669413" lon="15.0091265"><ele>782.5714285714287</ele><time>2026-04-11T15:33:29.246Z</time></trkpt><trkpt lat="41.2669345" lon="15.0090417"><ele>786.0</ele><time>2026-04-11T15:33:38.21Z</time></trkpt><trkpt lat="41.2668787" lon="15.0090014"><ele>786.0000000000001</ele><time>2026-04-11T15:33:47.209Z</time></trkpt><trkpt lat="41.2668153" lon="15.0089987"><ele>786.0</ele><time>2026-04-11T15:33:57.21Z</time></trkpt><trkpt lat="41.266761" lon="15.0089471"><ele>786.0</ele><time>2026-04-11T15:34:11.208Z</time></trkpt><trkpt lat="41.2667047" lon="15.0088996"><ele>786.0</ele><time>2026-04-11T15:34:21.208Z</time></trkpt><trkpt lat="41.2666376" lon="15.0088767"><ele>786.0</ele><time>2026-04-11T15:34:31.209Z</time></trkpt><trkpt lat="41.2665791" lon="15.0088194"><ele>786.0000000000001</ele><time>2026-04-11T15:34:38.208Z</time></trkpt><trkpt lat="41.2665121" lon="15.0088053"><ele>786.0</ele><time>2026-04-11T15:34:54.899Z</time></trkpt><trkpt lat="41.2664543" lon="15.0088435"><ele>788.4285714285714</ele><time>2026-04-11T15:34:59.208Z</time></trkpt><trkpt lat="41.2663846" lon="15.0088623"><ele>790.8571428571429</ele><time>2026-04-11T15:35:06.209Z</time></trkpt><trkpt lat="41.2663182" lon="15.008862"><ele>793.2857142857142</ele><time>2026-04-11T15:35:12.156Z</time></trkpt><trkpt lat="41.2662858" lon="15.0087829"><ele>795.7142857142858</ele><time>2026-04-11T15:35:20.209Z</time></trkpt><trkpt lat="41.2662328" lon="15.0087203"><ele>798.1428571428571</ele><time>2026-04-11T15:35:30.208Z</time></trkpt><trkpt lat="41.2661637" lon="15.0086834"><ele>800.5714285714286</ele><time>2026-04-11T15:35:36.209Z</time></trkpt><trkpt lat="41.2661007" lon="15.0086869"><ele>803.0</ele><time>2026-04-11T15:35:43.208Z</time></trkpt><trkpt lat="41.2660363" lon="15.0086673"><ele>802.9999999999999</ele><time>2026-04-11T15:35:53.21Z</time></trkpt><trkpt lat="41.2659776" lon="15.0086136"><ele>803.0</ele><time>2026-04-11T15:36:04.209Z</time></trkpt><trkpt lat="41.2659122" lon="15.0085778"><ele>803.0</ele><time>2026-04-11T15:36:12.209Z</time></trkpt><trkpt lat="41.2658497" lon="15.0085364"><ele>803.0</ele><time>2026-04-11T15:36:23.208Z</time></trkpt><trkpt lat="41.2658069" lon="15.0084588"><ele>803.0</ele><time>2026-04-11T15:36:40.208Z</time></trkpt><trkpt lat="41.2657463" lon="15.008412"><ele>802.9999999999999</ele><time>2026-04-11T15:36:46.217Z</time></trkpt><trkpt lat="41.2656808" lon="15.0083761"><ele>803.0</ele><time>2026-04-11T15:36:54.208Z</time></trkpt><trkpt lat="41.265651" lon="15.008301"><ele>805.3333333333334</ele><time>2026-04-11T15:37:00.209Z</time></trkpt><trkpt lat="41.2656048" lon="15.008237"><ele>807.6666666666667</ele><time>2026-04-11T15:37:07.208Z</time></trkpt><trkpt lat="41.2655532" lon="15.0081758"><ele>810.0</ele><time>2026-04-11T15:37:16.208Z</time></trkpt><trkpt lat="41.2655059" lon="15.0081118"><ele>812.3333333333333</ele><time>2026-04-11T15:37:23.208Z</time></trkpt><trkpt lat="41.2654921" lon="15.008023"><ele>814.6666666666666</ele><time>2026-04-11T15:37:33.208Z</time></trkpt><trkpt lat="41.2654492" lon="15.0079595"><ele>817.0</ele><time>2026-04-11T15:37:41.209Z</time></trkpt><trkpt lat="41.265359" lon="15.007833"><ele>816.9999999999999</ele><time>2026-04-11T15:38:27.173Z</time></trkpt><trkpt lat="41.2653497" lon="15.007745"><ele>817.0</ele><time>2026-04-11T15:38:45.209Z</time></trkpt><trkpt lat="41.2653141" lon="15.0076702"><ele>817.0</ele><time>2026-04-11T15:38:52.149Z</time></trkpt><trkpt lat="41.2652606" lon="15.0076211"><ele>817.0</ele><time>2026-04-11T15:40:42.207Z</time></trkpt><trkpt lat="41.2652104" lon="15.0075484"><ele>817.0</ele><time>2026-04-11T15:40:48.207Z</time></trkpt><trkpt lat="41.2651757" lon="15.0074781"><ele>816.9999999999999</ele><time>2026-04-11T15:40:51.207Z</time></trkpt><trkpt lat="41.2651407" lon="15.0073994"><ele>817.0</ele><time>2026-04-11T15:40:54.207Z</time></trkpt><trkpt lat="41.2650875" lon="15.0073139"><ele>817.9999999999999</ele><time>2026-04-11T15:40:58.207Z</time></trkpt><trkpt lat="41.265038" lon="15.007218"><ele>819.0</ele><time>2026-04-11T15:41:02.208Z</time></trkpt><trkpt lat="41.2649888" lon="15.0071531"><ele>820.0</ele><time>2026-04-11T15:41:04.207Z</time></trkpt><trkpt lat="41.2649251" lon="15.0070841"><ele>821.0</ele><time>2026-04-11T15:41:06.207Z</time></trkpt><trkpt lat="41.2648697" lon="15.0069719"><ele>821.9999999999999</ele><time>2026-04-11T15:41:16.207Z</time></trkpt><trkpt lat="41.264825" lon="15.0068792"><ele>823.0</ele><time>2026-04-11T15:41:17.208Z</time></trkpt><trkpt lat="41.2647569" lon="15.0068544"><ele>822.9999999999999</ele><time>2026-04-11T15:41:19.207Z</time></trkpt><trkpt lat="41.2646794" lon="15.0068783"><ele>823.0</ele><time>2026-04-11T15:41:21.207Z</time></trkpt><trkpt lat="41.2645718" lon="15.0068572"><ele>823.0</ele><time>2026-04-11T15:41:23.207Z</time></trkpt><trkpt lat="41.2645032" lon="15.0068858"><ele>823.0</ele><time>2026-04-11T15:41:25.208Z</time></trkpt><trkpt lat="41.264431" lon="15.0069275"><ele>822.9999999999999</ele><time>2026-04-11T15:41:27.207Z</time></trkpt><trkpt lat="41.2643563" lon="15.0069795"><ele>823.0</ele><time>2026-04-11T15:41:30.207Z</time></trkpt><trkpt lat="41.2642902" lon="15.0070385"><ele>822.9999999999999</ele><time>2026-04-11T15:41:33.207Z</time></trkpt><trkpt lat="41.2642307" lon="15.0071036"><ele>823.0</ele><time>2026-04-11T15:41:35.207Z</time></trkpt><trkpt lat="41.2641639" lon="15.007189"><ele>823.0</ele><time>2026-04-11T15:41:38.207Z</time></trkpt><trkpt lat="41.264112" lon="15.0072501"><ele>823.0</ele><time>2026-04-11T15:41:40.207Z</time></trkpt><trkpt lat="41.2640546" lon="15.0073206"><ele>822.9999999999999</ele><time>2026-04-11T15:41:42.207Z</time></trkpt><trkpt lat="41.2640188" lon="15.0074101"><ele>823.0</ele><time>2026-04-11T15:41:44.207Z</time></trkpt><trkpt lat="41.2639614" lon="15.0074748"><ele>825.8333333333333</ele><time>2026-04-11T15:41:46.207Z</time></trkpt><trkpt lat="41.2639098" lon="15.0075466"><ele>828.6666666666666</ele><time>2026-04-11T15:41:48.207Z</time></trkpt><trkpt lat="41.2638535" lon="15.0076361"><ele>831.5</ele><time>2026-04-11T15:41:50.207Z</time></trkpt><trkpt lat="41.2637858" lon="15.0076809"><ele>834.3333333333333</ele><time>2026-04-11T15:41:52.207Z</time></trkpt><trkpt lat="41.2637158" lon="15.0077423"><ele>837.1666666666666</ele><time>2026-04-11T15:41:54.207Z</time></trkpt><trkpt lat="41.263654" lon="15.0078151"><ele>840.0</ele><time>2026-04-11T15:41:56.208Z</time></trkpt><trkpt lat="41.2635897" lon="15.0078862"><ele>840.0</ele><time>2026-04-11T15:41:58.207Z</time></trkpt><trkpt lat="41.2635205" lon="15.007957"><ele>840.0</ele><time>2026-04-11T15:42:00.207Z</time></trkpt><trkpt lat="41.2634462" lon="15.008044"><ele>840.0</ele><time>2026-04-11T15:42:02.208Z</time></trkpt><trkpt lat="41.2633628" lon="15.0080992"><ele>840.0</ele><time>2026-04-11T15:42:04.207Z</time></trkpt><trkpt lat="41.2632732" lon="15.0081916"><ele>840.0</ele><time>2026-04-11T15:42:06.207Z</time></trkpt><trkpt lat="41.2631957" lon="15.0082594"><ele>839.8</ele><time>2026-04-11T15:42:08.208Z</time></trkpt><trkpt lat="41.2631188" lon="15.008327"><ele>839.6</ele><time>2026-04-11T15:42:10.207Z</time></trkpt><trkpt lat="41.2630531" lon="15.0083647"><ele>839.4000000000001</ele><time>2026-04-11T15:42:11.207Z</time></trkpt><trkpt lat="41.2629763" lon="15.0084531"><ele>839.2</ele><time>2026-04-11T15:42:13.208Z</time></trkpt><trkpt lat="41.2628957" lon="15.0085209"><ele>839.0</ele><time>2026-04-11T15:42:15.207Z</time></trkpt><trkpt lat="41.262803" lon="15.0085653"><ele>840.5000000000001</ele><time>2026-04-11T15:42:17.207Z</time></trkpt><trkpt lat="41.2627274" lon="15.008614"><ele>842.0</ele><time>2026-04-11T15:42:19.207Z</time></trkpt><trkpt lat="41.2626633" lon="15.0086294"><ele>843.5</ele><time>2026-04-11T15:42:21.207Z</time></trkpt><trkpt lat="41.2625742" lon="15.0086591"><ele>845.0</ele><time>2026-04-11T15:42:23.208Z</time></trkpt><trkpt lat="41.2624813" lon="15.0086945"><ele>846.5000000000001</ele><time>2026-04-11T15:42:25.208Z</time></trkpt><trkpt lat="41.262404" lon="15.0087102"><ele>848.0</ele><time>2026-04-11T15:42:27.208Z</time></trkpt><trkpt lat="41.2623421" lon="15.0087409"><ele>849.0000000000001</ele><time>2026-04-11T15:42:28.207Z</time></trkpt><trkpt lat="41.2622606" lon="15.0087775"><ele>850.0</ele><time>2026-04-11T15:42:30.207Z</time></trkpt><trkpt lat="41.2621673" lon="15.0088129"><ele>851.0</ele><time>2026-04-11T15:42:32.207Z</time></trkpt><trkpt lat="41.2620705" lon="15.0088694"><ele>852.0</ele><time>2026-04-11T15:42:34.207Z</time></trkpt><trkpt lat="41.2619893" lon="15.0089037"><ele>853.0000000000001</ele><time>2026-04-11T15:42:36.207Z</time></trkpt><trkpt lat="41.2619234" lon="15.008938"><ele>854.0</ele><time>2026-04-11T15:42:38.207Z</time></trkpt><trkpt lat="41.2618584" lon="15.0089763"><ele>854.0000000000001</ele><time>2026-04-11T15:42:41.207Z</time></trkpt><trkpt lat="41.2617829" lon="15.0090252"><ele>854.0</ele><time>2026-04-11T15:42:44.207Z</time></trkpt><trkpt lat="41.2617101" lon="15.0090567"><ele>854.0</ele><time>2026-04-11T15:42:46.207Z</time></trkpt><trkpt lat="41.2616322" lon="15.0090867"><ele>854.0</ele><time>2026-04-11T15:42:48.207Z</time></trkpt><trkpt lat="41.261564" lon="15.0091372"><ele>854.0000000000001</ele><time>2026-04-11T15:42:53.207Z</time></trkpt><trkpt lat="41.2614836" lon="15.0091764"><ele>854.0</ele><time>2026-04-11T15:42:56.207Z</time></trkpt><trkpt lat="41.2614152" lon="15.0092128"><ele>854.0</ele><time>2026-04-11T15:42:58.209Z</time></trkpt></trkseg></trk></gpx>